Fort Myers, FL (33919)

11:08 PM EDT on August 28, 2015 (GMT -0400)
Heritage Cove | | Change Station
CLOSE
Current Station
Personal Weather Station
Location: Fort Myers, FL
Elevation: 9 ft
Nearby Weather Stations

Elev 9 ft 26.54 °N, 81.91 °W | Updated 13 minutes ago

Clear
Clear
74.2 °F
Feels Like 71 °F
N
0.0
Wind Variable Wind from NW
Gusts 1.0 mph

Today
High -- | Low -- °F
--% Chance of Precip.
Yesterday
High -- | Low -- °F
Precip. -- in
7:05 AM 7:51 PM
Waxing Gibbous, 99% visible
Pressure 30.06 in
Visibility 10.0 miles
Clouds Clear
Heat Index 71 °F
Dew Point 73 °F
Humidity 96%
Rainfall 0.67 in
Snow Depth Not available.
UV 0 out of 12
Pollen 3.60 out of 12
Air Quality Not available.
Flu Activity Not available.
METAR KFMY 290253Z AUTO 10006KT 10SM CLR 24/23 A3006 RMK AO2 SLP179 T02390228 53012
Pressure 30.06 in
Visibility 10.0 miles
Clouds Clear
Heat Index 71 °F
Dew Point 73 °F
Humidity 96%
Rainfall 0.67 in
Snow Depth Not available.
UV 0 out of 12
Pollen 3.60 out of 12
Air Quality Not available.
Flu Activity Not available.
METAR KFMY 290253Z AUTO 10006KT 10SM CLR 24/23 A3006 RMK AO2 SLP179 T02390228 53012
Erika has become very unorganized in the face of strong wind shear in the eastern Caribbean Sea. The storm will pass directly over mountainous Hispaniola today, likely weakening it further. If the storm remains intact, it could reach an area favorable for strengthening before moving onto Florida by early next week. Follow the live blog

10-Day Weather Forecast

×

Almanac

Astronomy

Aug. 28, 2015 Rise Set
Actual Time
Civil Twilight
Nautical Twilight
Astronomical Twilight
Moon
Length of Visible Light
Length of Day
Tomorrow will be .
, % of the Moon is Illuminated

Today's Extremes

State Highs State Lows

Community

WunderPhotos

Upload Photos

1,850,593 photos uploaded!

WunderBlogs® & News

Nearby

Air Quality

  Air Quality AQ Index Pollutant
Not available.

Snow Depth

Station Depth Elevation

Earthquake Activity

City Distance Mag. Time & Date
Minimum magnitude displayed is 2.5.

Coastal Water Temperatures

Place Temperature

Stations

Nearby Weather Stations

Station Location Temp. Windchill Dew Point Humidity Wind Precip. Elev Updated Type